Time;durP1;ratioP1;P1;durP2;ratioP2;P2;SDS_P1;SDS_P2;PMS_P1;PMS_P2;Temp;Humidity;BMP_temperature;BMP_pressure;BME280_temperature;BME280_humidity;BME280_pressure;Samples;Min_cycle;Max_cycle;Signal;HPM_P1;HPM_P2
2022/10/21 00:01:03;;;;;;;4.30;2.00;;;;;;;;;;5040427;28;87697;-54
2022/10/21 00:03:33;;;;;;;1.90;1.23;;;;;;;;;;5041715;27;87090;-54
2022/10/21 00:06:01;;;;;;;2.53;1.43;;;;;;;;;;5041759;27;87044;-55
2022/10/21 00:08:29;;;;;;;1.77;1.37;;;;;;;;;;5040738;27;89118;-55
2022/10/21 00:10:58;;;;;;;3.07;1.67;;;;;;;;;;5040879;27;88294;-55
2022/10/21 00:13:27;;;;;;;1.97;1.73;;;;;;;;;;5040851;27;89023;-55
2022/10/21 00:15:58;;;;;;;3.13;1.70;;;;;;;;;;5041738;28;86860;-55
2022/10/21 00:18:27;;;;;;;5.63;1.80;;;;;;;;;;5043113;27;89350;-55
2022/10/21 00:20:56;;;;;;;2.23;1.60;;;;;;;;;;5043721;27;88894;-54
2022/10/21 00:23:25;;;;;;;3.70;2.10;;;;;;;;;;5044992;27;86697;-54
2022/10/21 00:25:56;;;;;;;2.50;1.80;;;;;;;;;;5044353;27;86251;-55
2022/10/21 00:28:24;;;;;;;1.53;1.40;;;;;;;;;;5044385;28;89435;-55
2022/10/21 00:30:52;;;;;;;2.03;1.50;;;;;;;;;;5043798;27;88463;-54
2022/10/21 00:33:21;;;;;;;1.97;1.47;;;;;;;;;;5044029;27;87935;-55
2022/10/21 00:35:52;;;;;;;6.60;2.17;;;;;;;;;;5044420;27;86996;-54
2022/10/21 00:38:22;;;;;;;2.17;1.77;;;;;;;;;;5045821;27;87975;-55
2022/10/21 00:40:50;;;;;;;1.70;1.50;;;;;;;;;;5046607;27;87013;-55
2022/10/21 00:43:18;;;;;;;3.50;1.40;;;;;;;;;;5063516;27;86925;-54
2022/10/21 00:45:46;;;;;;;2.27;1.57;;;;;;;;;;5064919;27;86911;-55
2022/10/21 00:48:15;;;;;;;1.70;1.57;;;;;;;;;;5054848;27;89233;-54
2022/10/21 00:50:44;;;;;;;2.10;1.20;;;;;;;;;;5062449;27;86528;-55
2022/10/21 00:53:14;;;;;;;3.70;2.03;;;;;;;;;;5044719;27;86980;-55
2022/10/21 00:55:46;;;;;;;2.87;1.90;;;;;;;;;;5045810;27;86960;-54
2022/10/21 00:58:14;;;;;;;1.60;1.07;;;;;;;;;;5059065;27;88766;-55
2022/10/21 01:00:42;;;;;;;1.90;1.27;;;;;;;;;;5062634;27;89588;-55
2022/10/21 01:03:11;;;;;;;1.40;1.30;;;;;;;;;;5063220;27;86881;-55
2022/10/21 01:05:39;;;;;;;2.43;1.83;;;;;;;;;;5048786;27;87160;-55
2022/10/21 01:08:07;;;;;;;3.97;1.87;;;;;;;;;;5044994;27;88109;-56
2022/10/21 01:10:35;;;;;;;1.43;1.33;;;;;;;;;;5044864;27;88792;-55
2022/10/21 01:13:08;;;;;;;1.63;1.47;;;;;;;;;;5043854;27;87164;-54
2022/10/21 01:15:37;;;;;;;1.47;1.33;;;;;;;;;;5044465;27;86159;-54
2022/10/21 01:18:07;;;;;;;1.27;1.10;;;;;;;;;;5043762;27;88825;-55
2022/10/21 01:20:49;;;;;;;2.80;1.60;;;;;;;;;;5043507;27;88059;-55
2022/10/21 01:23:29;;;;;;;2.27;1.57;;;;;;;;;;5043461;27;88070;-55
2022/10/21 01:26:06;;;;;;;2.10;1.70;;;;;;;;;;5043613;27;87030;-55
2022/10/21 01:28:39;;;;;;;2.43;1.47;;;;;;;;;;5043715;27;87092;-55
2022/10/21 01:31:09;;;;;;;3.40;1.90;;;;;;;;;;5043337;27;87567;-55
2022/10/21 01:33:39;;;;;;;1.87;1.40;;;;;;;;;;5044106;27;86892;-55
2022/10/21 01:36:13;;;;;;;2.30;1.73;;;;;;;;;;5044257;27;87081;-55
2022/10/21 01:38:42;;;;;;;1.97;1.60;;;;;;;;;;5043481;27;87813;-54
2022/10/21 01:41:10;;;;;;;1.70;1.60;;;;;;;;;;5043849;27;87422;-55
2022/10/21 01:43:39;;;;;;;1.30;1.00;;;;;;;;;;5043586;27;86870;-54
2022/10/21 01:46:11;;;;;;;1.23;1.07;;;;;;;;;;5043566;27;87014;-56
2022/10/21 01:48:40;;;;;;;2.30;1.93;;;;;;;;;;5042425;27;89138;-54
2022/10/21 01:51:09;;;;;;;1.97;1.77;;;;;;;;;;5042844;27;88537;-54
2022/10/21 01:53:38;;;;;;;1.13;1.10;;;;;;;;;;5043995;27;87110;-54
2022/10/21 01:56:07;;;;;;;3.07;1.93;;;;;;;;;;5043315;28;86874;-55
2022/10/21 01:58:35;;;;;;;1.53;1.20;;;;;;;;;;5042994;27;88171;-56
2022/10/21 02:01:04;;;;;;;2.53;1.63;;;;;;;;;;5042663;27;87801;-55
2022/10/21 02:03:35;;;;;;;1.40;1.13;;;;;;;;;;5043423;27;86926;-55
2022/10/21 02:06:04;;;;;;;2.37;1.13;;;;;;;;;;5044121;27;86320;-55
2022/10/21 02:08:32;;;;;;;1.53;1.43;;;;;;;;;;5043243;27;87793;-56
2022/10/21 02:11:01;;;;;;;1.70;1.60;;;;;;;;;;5042819;27;88889;-55
2022/10/21 02:13:31;;;;;;;1.77;1.47;;;;;;;;;;5042542;27;87887;-55
2022/10/21 02:16:00;;;;;;;2.87;1.90;;;;;;;;;;5044679;27;86988;-55
2022/10/21 02:18:28;;;;;;;1.43;1.20;;;;;;;;;;5043035;27;87936;-55
2022/10/21 02:20:59;;;;;;;1.47;1.20;;;;;;;;;;5044666;27;87740;-55
2022/10/21 02:23:30;;;;;;;1.40;1.30;;;;;;;;;;5052637;27;87017;-55
2022/10/21 02:25:59;;;;;;;1.03;0.93;;;;;;;;;;5063464;27;86971;-55
2022/10/21 02:28:27;;;;;;;2.40;1.33;;;;;;;;;;5061911;27;87283;-55
2022/10/21 02:30:57;;;;;;;2.37;1.60;;;;;;;;;;5063483;27;89011;-56
2022/10/21 02:33:28;;;;;;;3.13;1.60;;;;;;;;;;5055151;27;87096;-55
2022/10/21 02:35:58;;;;;;;1.93;1.27;;;;;;;;;;5062675;27;86921;-55
2022/10/21 02:38:28;;;;;;;1.17;1.03;;;;;;;;;;5060770;27;88849;-54
2022/10/21 02:40:56;;;;;;;2.00;1.07;;;;;;;;;;5060576;27;88535;-54
2022/10/21 02:43:26;;;;;;;1.43;1.00;;;;;;;;;;5050683;27;87079;-56
2022/10/21 02:45:54;;;;;;;2.43;1.57;;;;;;;;;;5043168;27;86912;-55
2022/10/21 02:48:22;;;;;;;1.50;1.40;;;;;;;;;;5050224;27;89128;-54
2022/10/21 02:50:50;;;;;;;2.17;1.30;;;;;;;;;;5044977;27;87751;-55
2022/10/21 02:53:19;;;;;;;1.13;1.03;;;;;;;;;;5052190;27;87055;-55
2022/10/21 02:55:48;;;;;;;1.20;1.10;;;;;;;;;;5056852;27;86158;-55
2022/10/21 02:58:16;;;;;;;1.30;1.20;;;;;;;;;;5042289;27;87874;-55
2022/10/21 03:00:45;;;;;;;2.23;1.20;;;;;;;;;;5043691;27;87612;-58
2022/10/21 03:03:13;;;;;;;1.03;0.97;;;;;;;;;;5043178;27;89058;-54
2022/10/21 03:05:41;;;;;;;2.47;1.87;;;;;;;;;;5042502;27;86998;-55
2022/10/21 03:08:10;;;;;;;2.03;1.23;;;;;;;;;;5050753;27;87036;-54
2022/10/21 03:10:38;;;;;;;2.00;1.40;;;;;;;;;;5046264;27;87920;-55
2022/10/21 03:13:07;;;;;;;1.47;1.20;;;;;;;;;;5050008;27;87015;-54
2022/10/21 03:15:36;;;;;;;1.60;1.17;;;;;;;;;;5060774;27;88412;-55
2022/10/21 03:18:04;;;;;;;1.20;1.10;;;;;;;;;;5060607;27;89034;-54
2022/10/21 03:20:32;;;;;;;1.33;1.23;;;;;;;;;;5049318;27;87319;-56
2022/10/21 03:23:00;;;;;;;1.33;1.07;;;;;;;;;;5060712;27;87042;-56
2022/10/21 03:25:29;;;;;;;1.87;1.60;;;;;;;;;;5049639;27;87126;-55
2022/10/21 03:28:02;;;;;;;2.37;0.97;;;;;;;;;;5042790;27;89238;-58
2022/10/21 03:30:32;;;;;;;1.10;1.00;;;;;;;;;;5048525;27;88637;-54
2022/10/21 03:33:00;;;;;;;3.63;1.37;;;;;;;;;;5062870;27;86947;-57
2022/10/21 03:35:28;;;;;;;2.10;0.73;;;;;;;;;;5041634;27;86944;-55
2022/10/21 03:37:57;;;;;;;1.90;1.10;;;;;;;;;;5040856;28;87696;-54
2022/10/21 03:40:28;;;;;;;2.30;1.63;;;;;;;;;;5041756;27;86913;-54
2022/10/21 03:42:57;;;;;;;2.00;1.77;;;;;;;;;;5042186;28;87160;-55
2022/10/21 03:45:25;;;;;;;2.53;1.00;;;;;;;;;;5042145;27;86548;-55
2022/10/21 03:47:55;;;;;;;1.37;1.27;;;;;;;;;;5041372;27;87983;-55
2022/10/21 03:50:23;;;;;;;1.40;1.30;;;;;;;;;;5041647;27;87787;-55
2022/10/21 03:52:54;;;;;;;1.30;1.00;;;;;;;;;;5042231;27;87940;-55
2022/10/21 03:55:24;;;;;;;1.23;1.13;;;;;;;;;;5041546;27;87058;-54
2022/10/21 03:57:52;;;;;;;1.47;1.20;;;;;;;;;;5041580;27;88196;-55
2022/10/21 04:00:20;;;;;;;1.33;1.03;;;;;;;;;;5041463;28;90765;-55
2022/10/21 04:02:48;;;;;;;1.97;1.10;;;;;;;;;;5041659;27;87263;-55
2022/10/21 04:05:18;;;;;;;1.00;1.00;;;;;;;;;;5041761;27;87001;-54
2022/10/21 04:07:46;;;;;;;1.33;1.23;;;;;;;;;;5041878;27;87878;-55
2022/10/21 04:10:20;;;;;;;2.70;1.60;;;;;;;;;;5045126;27;88916;-54
2022/10/21 04:12:48;;;;;;;1.60;0.93;;;;;;;;;;5044450;27;86951;-55
2022/10/21 04:15:16;;;;;;;1.50;1.37;;;;;;;;;;5055570;27;87055;-55
2022/10/21 04:17:45;;;;;;;1.07;1.03;;;;;;;;;;5044862;27;89836;-54
2022/10/21 04:20:13;;;;;;;1.17;0.90;;;;;;;;;;5057972;27;88922;-55
2022/10/21 04:22:43;;;;;;;0.70;0.60;;;;;;;;;;5044129;27;87083;-54
2022/10/21 04:25:11;;;;;;;1.30;1.10;;;;;;;;;;5042118;27;87053;-55
2022/10/21 04:27:40;;;;;;;1.13;0.93;;;;;;;;;;5040520;27;87142;-54
2022/10/21 04:30:09;;;;;;;2.10;1.20;;;;;;;;;;5040285;27;87976;-55
2022/10/21 04:32:37;;;;;;;1.20;1.10;;;;;;;;;;5040303;27;86968;-54
2022/10/21 04:35:06;;;;;;;1.77;1.13;;;;;;;;;;5041768;27;86396;-55
2022/10/21 04:37:34;;;;;;;1.00;0.90;;;;;;;;;;5040383;27;87895;-55
2022/10/21 04:40:04;;;;;;;1.70;1.27;;;;;;;;;;5040864;27;88524;-54
2022/10/21 04:42:32;;;;;;;1.20;1.10;;;;;;;;;;5040827;27;88017;-54
2022/10/21 04:45:00;;;;;;;2.37;0.77;;;;;;;;;;5040765;28;87099;-55
2022/10/21 04:47:28;;;;;;;1.07;0.60;;;;;;;;;;5039866;27;87978;-54
2022/10/21 04:49:57;;;;;;;4.03;1.30;;;;;;;;;;5040805;27;87591;-55
2022/10/21 04:52:26;;;;;;;1.10;1.03;;;;;;;;;;5041227;27;87113;-55
2022/10/21 04:54:54;;;;;;;2.33;1.07;;;;;;;;;;5041191;27;86812;-54
2022/10/21 04:57:23;;;;;;;1.30;1.10;;;;;;;;;;5040746;28;88035;-55
2022/10/21 04:59:52;;;;;;;1.20;1.10;;;;;;;;;;5041282;27;88879;-54
2022/10/21 05:02:20;;;;;;;1.47;1.37;;;;;;;;;;5041094;27;86950;-55
2022/10/21 05:04:52;;;;;;;1.27;1.17;;;;;;;;;;5044146;27;86937;-55
2022/10/21 05:07:20;;;;;;;1.33;1.03;;;;;;;;;;5044319;27;88890;-54
2022/10/21 05:09:49;;;;;;;1.33;1.10;;;;;;;;;;5044549;27;87243;-55
2022/10/21 05:12:17;;;;;;;1.23;0.90;;;;;;;;;;5044495;27;86912;-55
2022/10/21 05:14:47;;;;;;;1.37;0.80;;;;;;;;;;5045022;27;86947;-55
2022/10/21 05:17:15;;;;;;;1.37;0.97;;;;;;;;;;5044422;27;87870;-55
2022/10/21 05:19:43;;;;;;;1.47;1.00;;;;;;;;;;5044358;27;87784;-54
2022/10/21 05:22:12;;;;;;;1.13;0.80;;;;;;;;;;5044472;27;86974;-54
2022/10/21 05:24:40;;;;;;;1.23;0.90;;;;;;;;;;5044715;27;86251;-54
2022/10/21 05:27:08;;;;;;;0.90;0.90;;;;;;;;;;5052429;27;88073;-54
2022/10/21 05:29:37;;;;;;;0.83;0.83;;;;;;;;;;5064422;27;87730;-54
2022/10/21 05:32:06;;;;;;;1.37;1.00;;;;;;;;;;5063878;27;88014;-55
2022/10/21 05:34:34;;;;;;;0.73;0.70;;;;;;;;;;5064865;27;86853;-55
2022/10/21 05:37:03;;;;;;;1.70;1.33;;;;;;;;;;5064192;27;87900;-55
2022/10/21 05:39:31;;;;;;;1.40;0.83;;;;;;;;;;5064381;27;87065;-55
2022/10/21 05:41:59;;;;;;;1.10;1.00;;;;;;;;;;5064820;27;86930;-55
2022/10/21 05:44:28;;;;;;;1.63;1.10;;;;;;;;;;5063911;27;86961;-54
2022/10/21 05:46:56;;;;;;;1.57;0.93;;;;;;;;;;5064365;27;88040;-54
2022/10/21 05:49:26;;;;;;;2.77;0.97;;;;;;;;;;5064442;27;87550;-55
2022/10/21 05:51:54;;;;;;;1.77;0.90;;;;;;;;;;5063899;27;87046;-55
2022/10/21 05:54:22;;;;;;;1.50;1.17;;;;;;;;;;5063939;27;86789;-54
2022/10/21 05:56:51;;;;;;;0.93;0.93;;;;;;;;;;5062588;27;88678;-55
2022/10/21 05:59:19;;;;;;;2.50;1.23;;;;;;;;;;5063922;27;87110;-55
2022/10/21 06:01:47;;;;;;;2.10;0.87;;;;;;;;;;5063859;27;86935;-55
2022/10/21 06:04:16;;;;;;;0.60;0.60;;;;;;;;;;5064065;27;87081;-55
2022/10/21 06:06:45;;;;;;;0.77;0.77;;;;;;;;;;5064055;27;87969;-55
2022/10/21 06:09:14;;;;;;;1.33;0.70;;;;;;;;;;5045168;27;88840;-55
2022/10/21 06:11:42;;;;;;;1.00;0.90;;;;;;;;;;5051982;27;87122;-56
2022/10/21 06:14:10;;;;;;;0.60;0.60;;;;;;;;;;5061953;27;88105;-55
2022/10/21 06:16:39;;;;;;;0.77;0.77;;;;;;;;;;5049397;27;88553;-54
2022/10/21 06:19:07;;;;;;;1.60;1.20;;;;;;;;;;5063412;27;87709;-54
2022/10/21 06:21:35;;;;;;;0.90;0.90;;;;;;;;;;5047557;27;88005;-57
2022/10/21 06:24:05;;;;;;;1.63;1.00;;;;;;;;;;5043703;27;87104;-54
2022/10/21 06:26:33;;;;;;;1.00;0.90;;;;;;;;;;5052048;27;88128;-54
2022/10/21 06:29:04;;;;;;;1.17;1.00;;;;;;;;;;5042667;27;87815;-55
2022/10/21 06:31:32;;;;;;;1.23;0.70;;;;;;;;;;5041482;27;86829;-55
2022/10/21 06:34:00;;;;;;;2.00;0.73;;;;;;;;;;5042705;27;87081;-54
2022/10/21 06:36:29;;;;;;;0.80;0.80;;;;;;;;;;5041883;27;89027;-55
2022/10/21 06:38:57;;;;;;;0.70;0.67;;;;;;;;;;5041913;27;86583;-55
2022/10/21 06:41:27;;;;;;;0.70;0.70;;;;;;;;;;5047880;27;86912;-54
2022/10/21 06:43:55;;;;;;;0.80;0.80;;;;;;;;;;5041876;27;86945;-55
2022/10/21 06:46:23;;;;;;;0.70;0.70;;;;;;;;;;5054401;27;89927;-54
2022/10/21 06:48:52;;;;;;;0.87;0.87;;;;;;;;;;5042951;27;88430;-54
2022/10/21 06:51:20;;;;;;;1.07;0.83;;;;;;;;;;5041246;27;87101;-55
2022/10/21 06:53:52;;;;;;;2.43;1.00;;;;;;;;;;5040115;27;87334;-54
2022/10/21 06:56:20;;;;;;;1.43;0.77;;;;;;;;;;5040502;27;88669;-55
2022/10/21 06:58:50;;;;;;;0.80;0.50;;;;;;;;;;5041957;27;87751;-54
2022/10/21 07:01:19;;;;;;;0.67;0.67;;;;;;;;;;5040956;27;86971;-54
2022/10/21 07:04:07;;;;;;;1.63;1.00;;;;;;;;;;5041599;27;86671;-54
2022/10/21 07:06:36;;;;;;;0.93;0.80;;;;;;;;;;5041515;27;87821;-54
2022/10/21 07:09:04;;;;;;;1.77;0.80;;;;;;;;;;5039378;27;88807;-54
2022/10/21 07:11:33;;;;;;;1.10;1.00;;;;;;;;;;5044510;27;87929;-54
2022/10/21 07:14:02;;;;;;;0.80;0.80;;;;;;;;;;5043252;27;87013;-54
2022/10/21 07:16:31;;;;;;;1.20;0.67;;;;;;;;;;5050960;27;87896;-54
2022/10/21 07:18:59;;;;;;;1.53;1.03;;;;;;;;;;5046293;27;87813;-54
2022/10/21 07:21:29;;;;;;;1.43;0.90;;;;;;;;;;5061891;27;86901;-54
2022/10/21 07:23:57;;;;;;;0.60;0.60;;;;;;;;;;5048580;27;86984;-54
2022/10/21 07:26:27;;;;;;;0.90;0.90;;;;;;;;;;5041342;27;88921;-54
2022/10/21 07:28:57;;;;;;;0.77;0.77;;;;;;;;;;5054318;27;87444;-54
2022/10/21 07:31:26;;;;;;;0.67;0.67;;;;;;;;;;5059529;27;87767;-54
2022/10/21 07:33:55;;;;;;;2.23;1.10;;;;;;;;;;5049402;27;87166;-53
2022/10/21 07:36:24;;;;;;;1.03;0.80;;;;;;;;;;5059696;27;90097;-55
2022/10/21 07:38:52;;;;;;;3.00;0.93;;;;;;;;;;5049815;27;89540;-54
2022/10/21 07:41:21;;;;;;;1.03;0.77;;;;;;;;;;5041748;27;87017;-54
2022/10/21 07:43:50;;;;;;;0.80;0.80;;;;;;;;;;5042460;27;87102;-54
2022/10/21 07:46:18;;;;;;;2.00;0.90;;;;;;;;;;5057283;27;88040;-54
2022/10/21 07:48:48;;;;;;;0.60;0.60;;;;;;;;;;5044569;27;87578;-54
2022/10/21 07:51:17;;;;;;;0.90;0.90;;;;;;;;;;5055446;27;87051;-55
2022/10/21 07:53:45;;;;;;;1.33;0.90;;;;;;;;;;5060698;27;86245;-55
2022/10/21 07:56:14;;;;;;;0.77;0.77;;;;;;;;;;5050555;27;89071;-55
2022/10/21 07:58:42;;;;;;;1.53;0.90;;;;;;;;;;5041254;27;87905;-54
2022/10/21 08:01:10;;;;;;;1.53;1.03;;;;;;;;;;5041289;27;88017;-54
2022/10/21 08:03:39;;;;;;;1.00;0.80;;;;;;;;;;5055805;27;87354;-54
2022/10/21 08:06:11;;;;;;;3.20;0.70;;;;;;;;;;5058049;27;87022;-54
2022/10/21 08:08:39;;;;;;;3.80;1.33;;;;;;;;;;5052101;27;87462;-53
2022/10/21 08:11:08;;;;;;;1.70;0.80;;;;;;;;;;5059681;27;87427;-54
2022/10/21 08:13:36;;;;;;;0.90;0.80;;;;;;;;;;5059840;27;86991;-54
2022/10/21 08:16:05;;;;;;;1.20;0.70;;;;;;;;;;5056177;27;88673;-54
2022/10/21 08:18:33;;;;;;;0.60;0.60;;;;;;;;;;5050031;27;87558;-54
2022/10/21 08:21:02;;;;;;;1.10;0.93;;;;;;;;;;5039534;27;87178;-54
2022/10/21 08:23:32;;;;;;;2.10;0.90;;;;;;;;;;5041284;27;87046;-54
2022/10/21 08:26:00;;;;;;;0.63;0.63;;;;;;;;;;5039874;27;87999;-53
2022/10/21 08:28:29;;;;;;;1.27;1.10;;;;;;;;;;5039467;27;87393;-54
2022/10/21 08:31:02;;;;;;;2.67;1.27;;;;;;;;;;5041067;27;87120;-54
2022/10/21 08:33:31;;;;;;;0.97;0.80;;;;;;;;;;5041508;27;86914;-53
2022/10/21 08:35:59;;;;;;;1.13;0.90;;;;;;;;;;5044182;27;87886;-54
2022/10/21 08:38:27;;;;;;;0.83;0.83;;;;;;;;;;5062313;27;87585;-51
2022/10/21 08:40:57;;;;;;;1.03;0.57;;;;;;;;;;5065613;27;86797;-52
2022/10/21 08:43:26;;;;;;;2.43;1.40;;;;;;;;;;5064904;27;86161;-55
2022/10/21 08:45:55;;;;;;;1.57;1.10;;;;;;;;;;5060735;27;88874;-54
2022/10/21 08:48:24;;;;;;;0.70;0.70;;;;;;;;;;5065082;27;88755;-54
2022/10/21 08:50:52;;;;;;;1.60;1.10;;;;;;;;;;5064791;27;87874;-53
2022/10/21 08:53:21;;;;;;;3.00;1.33;;;;;;;;;;5063100;27;87265;-52
2022/10/21 08:55:49;;;;;;;2.63;1.10;;;;;;;;;;5044535;27;86948;-52
2022/10/21 08:58:20;;;;;;;4.10;0.73;;;;;;;;;;5044705;27;88328;-53
2022/10/21 09:00:49;;;;;;;1.23;0.80;;;;;;;;;;5050008;27;87010;-53
2022/10/21 09:03:19;;;;;;;3.43;1.77;;;;;;;;;;5064556;27;86988;-53
2022/10/21 09:06:06;;;;;;;5.53;1.37;;;;;;;;;;5059549;27;89033;-53
2022/10/21 09:08:35;;;;;;;2.30;1.43;;;;;;;;;;5062754;27;86558;-53
2022/10/21 09:11:05;;;;;;;1.70;1.10;;;;;;;;;;5059855;27;86988;-52
2022/10/21 09:13:45;;;;;;;1.57;1.07;;;;;;;;;;5058310;27;86932;-52
2022/10/21 09:16:14;;;;;;;3.30;1.03;;;;;;;;;;5054496;27;88889;-52
2022/10/21 09:18:45;;;;;;;1.43;0.80;;;;;;;;;;5063055;27;88671;-52
2022/10/21 09:21:15;;;;;;;4.23;1.30;;;;;;;;;;5051294;27;87591;-52
2022/10/21 09:23:47;;;;;;;3.93;1.37;;;;;;;;;;5044584;28;86886;-53
2022/10/21 09:26:19;;;;;;;3.50;1.43;;;;;;;;;;5063510;27;89200;-52
2022/10/21 09:28:48;;;;;;;1.30;1.10;;;;;;;;;;5057165;27;87415;-53
2022/10/21 09:31:18;;;;;;;1.97;0.90;;;;;;;;;;5064222;27;86866;-52
2022/10/21 09:33:47;;;;;;;2.00;1.20;;;;;;;;;;5064950;27;86301;-52
2022/10/21 09:36:16;;;;;;;1.93;1.20;;;;;;;;;;5064385;27;88245;-52
2022/10/21 09:38:46;;;;;;;0.97;0.90;;;;;;;;;;5064190;27;87626;-52
2022/10/21 09:41:14;;;;;;;2.77;1.37;;;;;;;;;;5047765;27;87865;-52
2022/10/21 09:43:42;;;;;;;3.40;1.10;;;;;;;;;;5044550;27;87152;-52
2022/10/21 09:46:13;;;;;;;2.80;1.47;;;;;;;;;;5043477;27;87967;-52
2022/10/21 09:48:42;;;;;;;0.93;0.90;;;;;;;;;;5043990;27;88958;-52
2022/10/21 09:51:31;;;;;;;1.23;1.13;;;;;;;;;;5048242;27;87003;-52
2022/10/21 09:54:03;;;;;;;3.73;1.20;;;;;;;;;;5063555;27;86981;-52
2022/10/21 09:56:31;;;;;;;1.70;1.07;;;;;;;;;;5057231;27;88121;-52
2022/10/21 09:59:06;;;;;;;2.27;1.17;;;;;;;;;;5043915;27;87767;-52
2022/10/21 10:01:36;;;;;;;1.07;0.93;;;;;;;;;;5044052;27;86932;-52
2022/10/21 10:04:10;;;;;;;2.23;1.00;;;;;;;;;;5043506;27;87110;-52
2022/10/21 10:06:39;;;;;;;2.47;1.30;;;;;;;;;;5053286;27;89045;-52
2022/10/21 10:09:16;;;;;;;3.60;0.90;;;;;;;;;;5063787;27;88753;-53
2022/10/21 10:11:52;;;;;;;1.20;1.10;;;;;;;;;;5062611;27;87086;-53
2022/10/21 10:14:28;;;;;;;1.73;1.30;;;;;;;;;;5063860;27;87004;-53
2022/10/21 10:16:58;;;;;;;1.63;0.90;;;;;;;;;;5062792;27;89132;-53
2022/10/21 10:19:27;;;;;;;1.73;1.40;;;;;;;;;;5063201;27;87839;-55
2022/10/21 10:22:08;;;;;;;3.90;1.37;;;;;;;;;;5055486;27;88120;-53
2022/10/21 10:24:39;;;;;;;6.93;1.10;;;;;;;;;;5044048;27;86155;-54
2022/10/21 10:27:08;;;;;;;2.03;1.08;;;;;;;;;;5042403;27;88053;-54
2022/10/21 10:29:36;;;;;;;4.97;0.70;;;;;;;;;;5043410;27;87839;-54
2022/10/21 10:32:06;;;;;;;1.73;1.13;;;;;;;;;;5048001;27;89770;-55
2022/10/21 10:34:34;;;;;;;3.53;1.03;;;;;;;;;;5042976;27;87078;-55
2022/10/21 10:37:04;;;;;;;1.53;1.30;;;;;;;;;;5043206;27;89379;-54
2022/10/21 10:39:32;;;;;;;3.93;1.53;;;;;;;;;;5043178;27;87846;-54
2022/10/21 10:42:01;;;;;;;2.27;1.37;;;;;;;;;;5060263;27;87013;-54
2022/10/21 10:44:29;;;;;;;2.57;1.67;;;;;;;;;;5048295;27;87016;-54
2022/10/21 10:46:58;;;;;;;1.27;0.70;;;;;;;;;;5043108;27;88251;-54
2022/10/21 10:49:28;;;;;;;2.23;1.20;;;;;;;;;;5043260;27;88834;-54
2022/10/21 10:52:21;;;;;;;1.13;0.93;;;;;;;;;;5042747;27;87039;-54
2022/10/21 10:54:49;;;;;;;1.73;0.90;;;;;;;;;;5043124;27;86999;-54
2022/10/21 10:57:18;;;;;;;2.33;1.30;;;;;;;;;;5042178;27;90006;-54
2022/10/21 10:59:47;;;;;;;3.70;1.17;;;;;;;;;;5042966;27;88595;-54
2022/10/21 11:02:21;;;;;;;0.73;0.73;;;;;;;;;;5042380;27;87600;-55
2022/10/21 11:04:53;;;;;;;2.40;1.00;;;;;;;;;;5042825;27;86962;-54
2022/10/21 11:07:27;;;;;;;2.27;1.23;;;;;;;;;;5042392;27;88787;-54
2022/10/21 11:09:57;;;;;;;1.13;0.67;;;;;;;;;;5042399;27;87615;-54
2022/10/21 11:12:26;;;;;;;1.17;1.07;;;;;;;;;;5043174;27;87168;-54
2022/10/21 11:14:56;;;;;;;1.43;1.00;;;;;;;;;;5043065;27;86231;-54
2022/10/21 11:17:28;;;;;;;4.07;1.40;;;;;;;;;;5042496;27;86909;-54
2022/10/21 11:19:59;;;;;;;2.07;1.10;;;;;;;;;;5042179;27;87501;-54
2022/10/21 11:22:31;;;;;;;0.97;0.70;;;;;;;;;;5042144;27;87942;-54
2022/10/21 11:25:03;;;;;;;3.03;1.47;;;;;;;;;;5043041;28;87012;-53
2022/10/21 11:27:38;;;;;;;3.73;1.37;;;;;;;;;;5042007;27;88068;-54
2022/10/21 11:30:09;;;;;;;3.50;1.30;;;;;;;;;;5042280;27;87931;-55
2022/10/21 11:32:52;;;;;;;3.03;0.97;;;;;;;;;;5042150;27;87129;-54
2022/10/21 11:35:26;;;;;;;2.40;1.30;;;;;;;;;;5040711;28;87162;-54
2022/10/21 11:37:57;;;;;;;1.90;1.17;;;;;;;;;;5041875;27;88161;-53
2022/10/21 11:40:31;;;;;;;1.60;0.97;;;;;;;;;;5042239;28;88681;-54
2022/10/21 11:43:00;;;;;;;1.50;1.00;;;;;;;;;;5042094;27;87039;-54
2022/10/21 11:45:32;;;;;;;1.43;0.90;;;;;;;;;;5041973;27;87979;-54
2022/10/21 11:48:01;;;;;;;3.60;1.07;;;;;;;;;;5041842;27;89843;-54
2022/10/21 11:50:32;;;;;;;2.43;0.77;;;;;;;;;;5042214;27;87442;-54
2022/10/21 11:53:11;;;;;;;0.70;0.70;;;;;;;;;;5042252;27;86985;-54
2022/10/21 11:55:40;;;;;;;1.40;1.20;;;;;;;;;;5041852;28;87038;-54
2022/10/21 11:58:13;;;;;;;2.03;0.70;;;;;;;;;;5041758;28;86961;-54
2022/10/21 12:00:42;;;;;;;0.70;0.70;;;;;;;;;;5041781;27;87568;-54
2022/10/21 12:03:23;;;;;;;1.20;0.70;;;;;;;;;;5042183;27;87013;-54
2022/10/21 12:05:55;;;;;;;2.00;0.93;;;;;;;;;;5042301;27;86348;-54
2022/10/21 12:08:26;;;;;;;1.57;0.97;;;;;;;;;;5041460;27;88102;-54
2022/10/21 12:10:55;;;;;;;2.03;1.23;;;;;;;;;;5041343;27;87730;-54
2022/10/21 12:13:25;;;;;;;1.43;1.07;;;;;;;;;;5040152;27;87841;-53
2022/10/21 12:15:54;;;;;;;2.03;1.00;;;;;;;;;;5041659;27;87021;-53
2022/10/21 12:18:22;;;;;;;4.10;1.37;;;;;;;;;;5041367;27;88121;-54
2022/10/21 12:20:52;;;;;;;0.77;0.77;;;;;;;;;;5041622;28;88608;-55
2022/10/21 12:23:22;;;;;;;1.17;0.90;;;;;;;;;;5041940;27;87037;-54
2022/10/21 12:25:56;;;;;;;1.07;0.83;;;;;;;;;;5041632;27;87147;-54
2022/10/21 12:28:27;;;;;;;1.23;0.80;;;;;;;;;;5041034;27;87234;-54
2022/10/21 12:30:56;;;;;;;2.60;1.10;;;;;;;;;;5041493;27;88788;-54
2022/10/21 12:33:25;;;;;;;3.70;0.90;;;;;;;;;;5041560;27;87032;-57
2022/10/21 12:35:54;;;;;;;0.87;0.80;;;;;;;;;;5041875;27;86959;-54
2022/10/21 12:38:25;;;;;;;0.57;0.57;;;;;;;;;;5040249;27;88607;-55
2022/10/21 12:41:08;;;;;;;5.10;0.73;;;;;;;;;;5041616;27;88863;-55
2022/10/21 12:43:37;;;;;;;1.40;0.83;;;;;;;;;;5041454;28;87078;-54
2022/10/21 12:46:05;;;;;;;0.50;0.50;;;;;;;;;;5041363;27;86902;-59
2022/10/21 12:48:35;;;;;;;0.90;0.70;;;;;;;;;;5040971;27;88132;-57
2022/10/21 12:51:04;;;;;;;1.77;1.33;;;;;;;;;;5041033;27;87597;-58
2022/10/21 12:53:38;;;;;;;3.30;0.93;;;;;;;;;;5041478;28;86878;-55
2022/10/21 12:56:07;;;;;;;1.50;0.77;;;;;;;;;;5041637;27;86803;-60
2022/10/21 12:58:36;;;;;;;0.97;0.70;;;;;;;;;;5041423;28;87972;-55
2022/10/21 13:01:05;;;;;;;1.03;0.53;;;;;;;;;;5040802;27;87025;-56
2022/10/21 13:03:51;;;;;;;0.87;0.60;;;;;;;;;;5040799;27;88058;-55
2022/10/21 13:06:48;;;;;;;1.13;0.73;;;;;;;;;;5041177;27;86853;-55
2022/10/21 13:09:33;;;;;;;1.20;1.10;;;;;;;;;;5040473;27;88088;-54
2022/10/21 13:12:13;;;;;;;4.30;1.10;;;;;;;;;;5040753;27;86821;-54
2022/10/21 13:14:42;;;;;;;1.50;0.57;;;;;;;;;;5041418;27;86977;-53
2022/10/21 13:17:27;;;;;;;1.27;1.13;;;;;;;;;;5041429;27;86769;-54
2022/10/21 13:19:56;;;;;;;0.93;0.80;;;;;;;;;;5040905;27;87866;-54
2022/10/21 13:22:33;;;;;;;1.57;0.80;;;;;;;;;;5041200;28;88695;-54
2022/10/21 13:25:11;;;;;;;1.60;0.70;;;;;;;;;;5042906;27;87001;-54
2022/10/21 13:27:41;;;;;;;0.60;0.60;;;;;;;;;;5044270;27;86960;-54
2022/10/21 13:30:10;;;;;;;0.73;0.67;;;;;;;;;;5043044;28;89649;-54
2022/10/21 13:32:38;;;;;;;0.57;0.57;;;;;;;;;;5043842;27;88516;-54
2022/10/21 13:35:31;;;;;;;1.50;0.73;;;;;;;;;;5044646;27;86964;-54
2022/10/21 13:38:03;;;;;;;0.73;0.67;;;;;;;;;;5044094;27;86966;-53
2022/10/21 13:40:38;;;;;;;1.00;0.70;;;;;;;;;;5044165;27;88215;-54
2022/10/21 13:43:07;;;;;;;0.83;0.50;;;;;;;;;;5043734;27;88792;-54
2022/10/21 13:45:35;;;;;;;3.50;1.13;;;;;;;;;;5044270;27;86963;-54
2022/10/21 13:48:05;;;;;;;1.27;0.60;;;;;;;;;;5044667;27;86199;-53
2022/10/21 13:50:34;;;;;;;2.50;0.77;;;;;;;;;;5044020;27;88030;-54
2022/10/21 13:53:03;;;;;;;0.50;0.50;;;;;;;;;;5043788;27;87451;-54
2022/10/21 13:55:31;;;;;;;0.83;0.67;;;;;;;;;;5043581;27;87847;-54
2022/10/21 13:58:01;;;;;;;0.60;0.60;;;;;;;;;;5043853;28;86848;-54
2022/10/21 14:00:29;;;;;;;0.50;0.50;;;;;;;;;;5043517;27;88780;-54
2022/10/21 14:03:00;;;;;;;2.73;0.77;;;;;;;;;;5043721;28;88943;-54
2022/10/21 14:05:35;;;;;;;0.57;0.57;;;;;;;;;;5043543;27;87000;-54
2022/10/21 14:08:04;;;;;;;4.03;1.07;;;;;;;;;;5043139;27;87019;-54
2022/10/21 14:10:32;;;;;;;0.60;0.60;;;;;;;;;;5043310;27;87062;-54
2022/10/21 14:13:02;;;;;;;1.50;0.70;;;;;;;;;;5044059;27;87644;-54
2022/10/21 14:15:34;;;;;;;1.70;0.60;;;;;;;;;;5043912;27;87145;-54
2022/10/21 14:18:02;;;;;;;0.63;0.63;;;;;;;;;;5043630;27;87426;-54
2022/10/21 14:20:32;;;;;;;0.60;0.60;;;;;;;;;;5042662;27;88696;-54
2022/10/21 14:23:01;;;;;;;1.30;0.53;;;;;;;;;;5043319;27;88694;-54
2022/10/21 14:25:29;;;;;;;1.70;0.70;;;;;;;;;;5043625;27;86760;-54
2022/10/21 14:27:58;;;;;;;0.50;0.50;;;;;;;;;;5043037;27;87046;-54
2022/10/21 14:30:28;;;;;;;0.70;0.70;;;;;;;;;;5043127;27;88154;-54
2022/10/21 14:32:58;;;;;;;0.60;0.60;;;;;;;;;;5043109;27;87084;-54
2022/10/21 14:35:27;;;;;;;0.53;0.53;;;;;;;;;;5042763;27;86767;-54
2022/10/21 14:37:55;;;;;;;1.10;0.80;;;;;;;;;;5042942;27;86171;-54
2022/10/21 14:40:30;;;;;;;0.70;0.70;;;;;;;;;;5042682;27;86953;-54
2022/10/21 14:42:59;;;;;;;1.13;0.63;;;;;;;;;;5042940;27;89013;-56
2022/10/21 14:45:29;;;;;;;1.23;0.97;;;;;;;;;;5043049;27;87952;-54
2022/10/21 14:48:01;;;;;;;0.67;0.60;;;;;;;;;;5042368;27;86998;-54
2022/10/21 14:50:31;;;;;;;0.90;0.90;;;;;;;;;;5042560;27;87942;-54
2022/10/21 14:52:59;;;;;;;1.10;0.70;;;;;;;;;;5042904;27;87665;-54
2022/10/21 14:55:28;;;;;;;5.03;1.10;;;;;;;;;;5043305;27;87065;-54
2022/10/21 14:58:00;;;;;;;0.73;0.60;;;;;;;;;;5043187;27;87048;-54
2022/10/21 15:00:30;;;;;;;0.80;0.67;;;;;;;;;;5042724;27;88094;-54